sensor_id;sensor_type;location;lat;lon;timestamp;P1;durP1;ratioP1;P2;durP2;ratioP2
4565;SDS011;2295;51.050;14.608;2022-09-29T07:07:54;12.23;;;10.75;;
4565;SDS011;2295;51.050;14.608;2022-09-29T07:10:26;7.60;;;4.83;;
4565;SDS011;2295;51.050;14.608;2022-09-29T07:12:56;7.70;;;4.50;;
4565;SDS011;2295;51.050;14.608;2022-09-29T07:15:25;3.80;;;3.50;;
4565;SDS011;2295;51.050;14.608;2022-09-29T07:17:57;4.30;;;3.90;;
4565;SDS011;2295;51.050;14.608;2022-09-29T07:20:26;11.37;;;5.80;;
4565;SDS011;2295;51.050;14.608;2022-09-29T07:22:56;7.10;;;4.03;;
4565;SDS011;2295;51.050;14.608;2022-09-29T07:25:24;5.67;;;4.47;;
4565;SDS011;2295;51.050;14.608;2022-09-29T07:28:14;4.93;;;4.20;;
4565;SDS011;2295;51.050;14.608;2022-09-29T07:30:42;8.73;;;4.70;;
4565;SDS011;2295;51.050;14.608;2022-09-29T07:33:10;9.27;;;6.00;;
4565;SDS011;2295;51.050;14.608;2022-09-29T07:35:39;11.60;;;5.50;;
4565;SDS011;2295;51.050;14.608;2022-09-29T07:38:07;9.23;;;5.07;;
4565;SDS011;2295;51.050;14.608;2022-09-29T07:40:35;7.87;;;4.60;;
4565;SDS011;2295;51.050;14.608;2022-09-29T07:43:03;11.10;;;5.23;;
4565;SDS011;2295;51.050;14.608;2022-09-29T07:45:34;10.37;;;5.20;;
4565;SDS011;2295;51.050;14.608;2022-09-29T07:48:02;4.47;;;3.57;;
4565;SDS011;2295;51.050;14.608;2022-09-29T07:50:30;10.60;;;6.67;;
4565;SDS011;2295;51.050;14.608;2022-09-29T07:52:58;12.40;;;7.07;;
4565;SDS011;2295;51.050;14.608;2022-09-29T07:55:27;4.27;;;3.87;;
4565;SDS011;2295;51.050;14.608;2022-09-29T07:57:55;4.70;;;3.73;;
4565;SDS011;2295;51.050;14.608;2022-09-29T08:00:23;4.30;;;3.73;;
4565;SDS011;2295;51.050;14.608;2022-09-29T08:02:53;7.23;;;4.13;;
4565;SDS011;2295;51.050;14.608;2022-09-29T08:05:21;7.37;;;3.50;;
4565;SDS011;2295;51.050;14.608;2022-09-29T08:07:50;3.50;;;3.20;;
4565;SDS011;2295;51.050;14.608;2022-09-29T08:10:19;3.07;;;2.87;;
4565;SDS011;2295;51.050;14.608;2022-09-29T08:12:47;3.20;;;2.90;;
4565;SDS011;2295;51.050;14.608;2022-09-29T08:15:16;3.73;;;3.00;;
4565;SDS011;2295;51.050;14.608;2022-09-29T08:17:44;3.23;;;3.00;;
4565;SDS011;2295;51.050;14.608;2022-09-29T08:20:14;3.60;;;3.10;;
4565;SDS011;2295;51.050;14.608;2022-09-29T08:22:42;14.53;;;3.87;;
4565;SDS011;2295;51.050;14.608;2022-09-29T08:25:10;3.23;;;3.03;;
4565;SDS011;2295;51.050;14.608;2022-09-29T08:27:39;8.33;;;3.20;;
4565;SDS011;2295;51.050;14.608;2022-09-29T08:30:19;3.33;;;3.03;;
4565;SDS011;2295;51.050;14.608;2022-09-29T08:32:49;3.20;;;3.03;;
4565;SDS011;2295;51.050;14.608;2022-09-29T08:35:20;7.80;;;2.77;;
4565;SDS011;2295;51.050;14.608;2022-09-29T08:37:48;4.73;;;3.43;;
4565;SDS011;2295;51.050;14.608;2022-09-29T08:40:17;2.67;;;2.47;;
4565;SDS011;2295;51.050;14.608;2022-09-29T08:42:47;3.70;;;3.07;;
4565;SDS011;2295;51.050;14.608;2022-09-29T08:45:24;9.13;;;3.27;;
4565;SDS011;2295;51.050;14.608;2022-09-29T08:47:58;3.00;;;2.50;;
4565;SDS011;2295;51.050;14.608;2022-09-29T08:50:48;2.37;;;2.27;;
4565;SDS011;2295;51.050;14.608;2022-09-29T08:53:23;5.10;;;3.50;;
4565;SDS011;2295;51.050;14.608;2022-09-29T08:55:56;2.30;;;2.20;;
4565;SDS011;2295;51.050;14.608;2022-09-29T08:58:26;2.80;;;2.60;;
4565;SDS011;2295;51.050;14.608;2022-09-29T09:00:58;2.93;;;2.57;;
4565;SDS011;2295;51.050;14.608;2022-09-29T09:03:48;5.67;;;4.20;;
4565;SDS011;2295;51.050;14.608;2022-09-29T09:06:36;3.60;;;3.00;;
4565;SDS011;2295;51.050;14.608;2022-09-29T09:09:23;2.90;;;2.70;;
4565;SDS011;2295;51.050;14.608;2022-09-29T09:12:16;2.33;;;2.23;;
4565;SDS011;2295;51.050;14.608;2022-09-29T09:14:59;2.23;;;2.00;;
4565;SDS011;2295;51.050;14.608;2022-09-29T09:17:52;2.70;;;2.50;;
4565;SDS011;2295;51.050;14.608;2022-09-29T09:20:38;4.13;;;2.33;;
4565;SDS011;2295;51.050;14.608;2022-09-29T09:23:15;3.63;;;2.67;;
4565;SDS011;2295;51.050;14.608;2022-09-29T09:25:49;3.70;;;2.80;;
4565;SDS011;2295;51.050;14.608;2022-09-29T09:28:21;2.30;;;2.20;;
4565;SDS011;2295;51.050;14.608;2022-09-29T09:30:55;4.37;;;2.43;;
4565;SDS011;2295;51.050;14.608;2022-09-29T09:33:29;2.70;;;2.50;;
4565;SDS011;2295;51.050;14.608;2022-09-29T09:36:04;3.50;;;2.60;;
4565;SDS011;2295;51.050;14.608;2022-09-29T09:38:45;5.00;;;2.60;;
4565;SDS011;2295;51.050;14.608;2022-09-29T09:41:17;3.13;;;2.53;;
4565;SDS011;2295;51.050;14.608;2022-09-29T09:43:50;9.20;;;2.87;;
4565;SDS011;2295;51.050;14.608;2022-09-29T09:46:25;2.60;;;2.40;;
4565;SDS011;2295;51.050;14.608;2022-09-29T09:49:01;2.57;;;2.37;;
4565;SDS011;2295;51.050;14.608;2022-09-29T09:51:40;2.60;;;2.50;;
4565;SDS011;2295;51.050;14.608;2022-09-29T09:54:15;3.20;;;2.43;;
4565;SDS011;2295;51.050;14.608;2022-09-29T09:56:57;4.67;;;2.50;;
4565;SDS011;2295;51.050;14.608;2022-09-29T09:59:36;3.00;;;2.80;;
4565;SDS011;2295;51.050;14.608;2022-09-29T10:02:14;1.93;;;1.80;;
4565;SDS011;2295;51.050;14.608;2022-09-29T10:04:46;3.20;;;1.90;;
4565;SDS011;2295;51.050;14.608;2022-09-29T10:07:18;3.73;;;2.17;;
4565;SDS011;2295;51.050;14.608;2022-09-29T10:09:48;2.20;;;2.00;;
4565;SDS011;2295;51.050;14.608;2022-09-29T10:12:18;1.80;;;1.70;;
4565;SDS011;2295;51.050;14.608;2022-09-29T10:14:49;7.60;;;3.90;;
4565;SDS011;2295;51.050;14.608;2022-09-29T10:17:22;2.30;;;2.20;;
4565;SDS011;2295;51.050;14.608;2022-09-29T10:19:55;2.80;;;2.37;;
4565;SDS011;2295;51.050;14.608;2022-09-29T10:22:24;1.87;;;1.77;;
4565;SDS011;2295;51.050;14.608;2022-09-29T10:25:04;1.90;;;1.80;;
4565;SDS011;2295;51.050;14.608;2022-09-29T10:27:34;4.50;;;1.70;;
4565;SDS011;2295;51.050;14.608;2022-09-29T10:30:15;3.13;;;2.07;;
4565;SDS011;2295;51.050;14.608;2022-09-29T10:32:46;2.43;;;2.23;;
4565;SDS011;2295;51.050;14.608;2022-09-29T10:35:15;2.43;;;2.17;;
4565;SDS011;2295;51.050;14.608;2022-09-29T10:37:46;3.23;;;1.60;;
4565;SDS011;2295;51.050;14.608;2022-09-29T10:40:20;3.60;;;2.40;;
4565;SDS011;2295;51.050;14.608;2022-09-29T10:42:49;5.00;;;4.10;;
4565;SDS011;2295;51.050;14.608;2022-09-29T10:45:19;3.13;;;2.83;;
4565;SDS011;2295;51.050;14.608;2022-09-29T10:48:07;4.77;;;3.20;;
4565;SDS011;2295;51.050;14.608;2022-09-29T10:50:47;4.30;;;3.90;;
4565;SDS011;2295;51.050;14.608;2022-09-29T10:53:18;7.40;;;3.37;;
4565;SDS011;2295;51.050;14.608;2022-09-29T10:55:54;10.80;;;5.73;;
4565;SDS011;2295;51.050;14.608;2022-09-29T10:58:24;2.50;;;2.30;;
4565;SDS011;2295;51.050;14.608;2022-09-29T11:01:16;2.97;;;2.00;;
4565;SDS011;2295;51.050;14.608;2022-09-29T11:03:47;4.22;;;2.13;;
4565;SDS011;2295;51.050;14.608;2022-09-29T11:06:20;2.60;;;1.95;;
4565;SDS011;2295;51.050;14.608;2022-09-29T11:08:59;2.78;;;2.03;;
